createdAt,value
2019-03-19T00:02:26.744Z,101757.18
2019-03-19T00:04:57.844Z,101760.23
2019-03-19T00:07:29.138Z,101760.30
2019-03-19T00:10:00.424Z,101756.39
2019-03-19T00:12:32.619Z,101757.78
2019-03-19T00:15:04.912Z,101758.67
2019-03-19T00:17:36.201Z,101757.77
2019-03-19T00:20:12.937Z,101751.73
2019-03-19T00:22:45.880Z,101757.02
2019-03-19T00:25:29.121Z,101757.45
2019-03-19T00:27:53.894Z,101751.83
2019-03-19T00:30:25.261Z,101758.45
2019-03-19T00:32:57.143Z,101760.59
2019-03-19T00:35:29.252Z,101753.66
2019-03-19T00:38:00.417Z,101748.81
2019-03-19T00:40:31.607Z,101757.55
2019-03-19T00:43:02.911Z,101750.61
2019-03-19T00:45:35.743Z,101752.02
2019-03-19T00:48:07.857Z,101756.44
2019-03-19T00:50:39.263Z,101759.94
2019-03-19T00:53:10.556Z,101766.09
2019-03-19T00:55:41.831Z,101758.33
2019-03-19T00:58:12.881Z,101754.84
2019-03-19T01:00:45.575Z,101760.08
2019-03-19T01:03:17.848Z,101765.75
2019-03-19T01:05:49.022Z,101770.08
2019-03-19T01:08:21.935Z,101769.22
2019-03-19T01:10:54.591Z,101777.49
2019-03-19T01:13:26.645Z,101777.88
2019-03-19T01:16:00.171Z,101783.51
2019-03-19T01:18:31.594Z,101785.19
2019-03-19T01:21:05.795Z,101789.63
2019-03-19T01:23:37.120Z,101792.25
2019-03-19T01:26:10.529Z,101786.55
2019-03-19T01:28:42.317Z,101790.92
2019-03-19T01:31:13.723Z,101790.49
2019-03-19T01:33:45.124Z,101797.91
2019-03-19T01:36:16.312Z,101794.84
2019-03-19T01:38:47.709Z,101794.38
2019-03-19T01:41:19.300Z,101790.05
2019-03-19T01:43:50.652Z,101788.37
2019-03-19T01:46:23.511Z,101795.38
2019-03-19T01:48:54.876Z,101791.49
2019-03-19T01:51:26.124Z,101793.24
2019-03-19T01:53:57.432Z,101795.39
2019-03-19T01:56:29.101Z,101802.79
2019-03-19T01:59:00.272Z,101804.08
2019-03-19T02:01:31.509Z,101804.52
2019-03-19T02:04:02.874Z,101801.94
2019-03-19T02:06:34.299Z,101805.06
2019-03-19T02:09:06.260Z,101807.72
2019-03-19T02:11:38.494Z,101806.45
2019-03-19T02:14:10.009Z,101803.86
2019-03-19T02:16:43.532Z,101798.67
2019-03-19T02:19:16.041Z,101796.52
2019-03-19T02:21:47.259Z,101793.05
2019-03-19T02:24:20.022Z,101804.02
2019-03-19T02:26:52.471Z,101797.47
2019-03-19T02:29:23.877Z,101797.94
2019-03-19T02:31:55.019Z,101797.05
2019-03-19T02:34:26.981Z,101797.54
2019-03-19T02:36:58.506Z,101792.36
2019-03-19T02:39:29.873Z,101795.44
2019-03-19T02:42:01.274Z,101794.58
2019-03-19T02:44:32.648Z,101786.31
2019-03-19T02:47:04.068Z,101792.83
2019-03-19T02:49:35.582Z,101796.37
2019-03-19T02:52:06.774Z,101798.58
2019-03-19T02:54:38.035Z,101802.52
2019-03-19T02:57:09.667Z,101809.94
2019-03-19T02:59:40.937Z,101809.09
2019-03-19T03:02:12.239Z,101803.86
2019-03-19T03:04:44.182Z,101804.73
2019-03-19T03:07:16.150Z,101805.59
2019-03-19T03:09:50.623Z,101809.09
2019-03-19T03:12:22.874Z,101802.96
2019-03-19T03:14:54.115Z,101801.67
2019-03-19T03:17:25.160Z,101807.33
2019-03-19T03:19:56.553Z,101812.55
2019-03-19T03:22:28.805Z,101813.42
2019-03-19T03:25:00.018Z,101818.25
2019-03-19T03:27:31.596Z,101817.36
2019-03-19T03:30:03.296Z,101823.48
2019-03-19T03:32:34.831Z,101818.73
2019-03-19T03:35:07.398Z,101819.13
2019-03-19T03:37:38.596Z,101820.91
2019-03-19T03:40:14.892Z,101827.87
2019-03-19T03:42:46.095Z,101827.02
2019-03-19T03:45:18.141Z,101833.55
2019-03-19T03:47:49.387Z,101827.02
2019-03-19T03:50:20.504Z,101833.98
2019-03-19T03:52:51.768Z,101828.30
2019-03-19T03:55:23.243Z,101824.77
2019-03-19T03:57:54.900Z,101825.20
2019-03-19T04:00:26.146Z,101833.92
2019-03-19T04:02:57.266Z,101833.88
2019-03-19T04:05:30.379Z,101843.47
2019-03-19T04:08:02.111Z,101843.89
2019-03-19T04:10:33.416Z,101846.49
2019-03-19T04:13:04.572Z,101845.61
2019-03-19T04:15:36.092Z,101845.97
2019-03-19T04:18:07.163Z,101853.81
2019-03-19T04:20:38.949Z,101856.43
2019-03-19T04:23:10.106Z,101853.38
2019-03-19T04:25:41.289Z,101853.41
2019-03-19T04:28:12.771Z,101856.53
2019-03-19T04:30:44.544Z,101865.70
2019-03-19T04:33:16.562Z,101864.02
2019-03-19T04:35:47.835Z,101862.70
2019-03-19T04:38:22.374Z,101860.52
2019-03-19T04:40:53.800Z,101867.94
2019-03-19T04:43:25.105Z,101869.75
2019-03-19T04:45:56.295Z,101871.89
2019-03-19T04:48:27.655Z,101880.63
2019-03-19T04:51:00.314Z,101885.88
2019-03-19T04:53:31.557Z,101885.44
2019-03-19T04:56:02.803Z,101891.08
2019-03-19T04:58:34.129Z,101887.58
2019-03-19T05:01:05.330Z,101895.00
2019-03-19T05:03:36.668Z,101892.81
2019-03-19T05:06:08.304Z,101894.98
2019-03-19T05:08:39.672Z,101892.35
2019-03-19T05:11:10.894Z,101893.17
2019-03-19T05:13:42.110Z,101893.98
2019-03-19T05:16:13.303Z,101901.78
2019-03-19T05:18:44.492Z,101900.44
2019-03-19T05:21:15.810Z,101899.13
2019-03-19T05:23:46.963Z,101906.05
2019-03-19T05:26:20.202Z,101909.03
2019-03-19T05:28:51.424Z,101908.95
2019-03-19T05:31:23.669Z,101915.00
2019-03-19T05:33:54.794Z,101918.46
2019-03-19T05:36:26.025Z,101916.69
2019-03-19T05:38:57.305Z,101919.25
2019-03-19T05:41:30.522Z,101920.05
2019-03-19T05:44:07.871Z,101915.14
2019-03-19T05:47:09.569Z,101916.78
2019-03-19T05:49:47.271Z,101916.22
2019-03-19T05:52:18.401Z,101917.02
2019-03-19T05:54:49.687Z,101920.05
2019-03-19T05:57:20.976Z,101925.21
2019-03-19T05:59:52.267Z,101921.61
2019-03-19T06:02:23.711Z,101924.63
2019-03-19T06:04:56.569Z,101925.00
2019-03-19T06:07:27.734Z,101928.84
2019-03-19T06:09:59.751Z,101932.26
2019-03-19T06:12:31.475Z,101928.28
2019-03-19T06:15:02.762Z,101924.30
2019-03-19T06:17:35.119Z,101936.86
2019-03-19T06:20:12.446Z,101933.77
2019-03-19T06:22:45.329Z,101932.82
2019-03-19T06:25:16.737Z,101932.73
2019-03-19T06:27:47.849Z,101932.69
2019-03-19T06:30:19.997Z,101932.55
2019-03-19T06:32:51.510Z,101931.57
2019-03-19T06:35:25.647Z,101939.27
2019-03-19T06:37:58.423Z,101940.91
2019-03-19T06:40:30.999Z,101945.27
2019-03-19T06:43:04.037Z,101942.17
2019-03-19T06:45:36.693Z,101940.31
2019-03-19T06:48:08.086Z,101933.20
2019-03-19T06:50:45.137Z,101932.67
2019-03-19T06:53:12.245Z,101931.19
2019-03-19T06:55:44.052Z,101927.56
2019-03-19T06:58:15.424Z,101926.91
2019-03-19T07:00:47.213Z,101940.29
2019-03-19T07:03:18.422Z,101942.81
2019-03-19T07:05:49.648Z,101940.87
2019-03-19T07:08:20.838Z,101935.76
2019-03-19T07:10:52.003Z,101947.44
2019-03-19T07:13:23.452Z,101946.88
2019-03-19T07:15:54.797Z,101945.41
2019-03-19T07:18:25.966Z,101944.88
2019-03-19T07:20:57.167Z,101935.34
2019-03-19T07:23:28.593Z,101934.35
2019-03-19T07:25:59.875Z,101939.86
2019-03-19T07:28:32.227Z,101933.07
2019-03-19T07:31:04.803Z,101932.80
2019-03-19T07:33:36.303Z,101935.26
2019-03-19T07:36:07.446Z,101930.39
2019-03-19T07:38:40.274Z,101937.62
2019-03-19T07:41:13.145Z,101928.43
2019-03-19T07:43:45.285Z,101930.38
2019-03-19T07:46:16.458Z,101939.41
2019-03-19T07:48:47.942Z,101936.45
2019-03-19T07:51:19.253Z,101925.72
2019-03-19T07:53:50.464Z,101933.72
2019-03-19T07:56:21.674Z,101932.15
2019-03-19T07:58:53.168Z,101927.42
2019-03-19T08:01:24.821Z,101928.94
2019-03-19T08:03:56.361Z,101928.21
2019-03-19T08:06:27.720Z,101925.24
2019-03-19T08:09:00.615Z,101923.76
2019-03-19T08:11:31.948Z,101918.94
2019-03-19T08:14:04.303Z,101919.07
2019-03-19T08:16:37.220Z,101923.66
2019-03-19T08:19:10.475Z,101919.69
2019-03-19T08:21:41.890Z,101918.44
2019-03-19T08:24:13.845Z,101914.62
2019-03-19T08:26:46.272Z,101913.81
2019-03-19T08:29:18.014Z,101915.88
2019-03-19T08:31:49.327Z,101916.45
2019-03-19T08:34:20.475Z,101912.95
2019-03-19T08:36:51.677Z,101918.64
2019-03-19T08:39:23.585Z,101915.09
2019-03-19T08:41:54.856Z,101911.73
2019-03-19T08:44:28.190Z,101911.95
2019-03-19T08:46:59.441Z,101909.80
2019-03-19T08:49:30.844Z,101906.38
2019-03-19T08:52:03.634Z,101917.45
2019-03-19T08:54:34.933Z,101914.34
2019-03-19T08:57:06.611Z,101908.29
2019-03-19T08:59:37.761Z,101903.75
2019-03-19T09:02:10.053Z,101914.86
2019-03-19T09:04:44.197Z,101913.59
2019-03-19T09:07:15.547Z,101906.67
2019-03-19T09:09:47.610Z,101905.13
2019-03-19T09:12:19.607Z,101907.94
2019-03-19T09:14:50.876Z,101904.80
2019-03-19T09:17:22.586Z,101905.42
2019-03-19T09:19:54.128Z,101896.69
2019-03-19T09:22:29.556Z,101900.19
2019-03-19T09:25:01.472Z,101900.37
2019-03-19T09:27:32.615Z,101900.20
2019-03-19T09:30:05.079Z,101895.97
2019-03-19T09:32:37.153Z,101904.06
2019-03-19T09:35:08.862Z,101900.72
2019-03-19T09:37:44.353Z,101897.30
2019-03-19T09:40:21.338Z,101892.75
2019-03-19T09:42:52.603Z,101889.97
2019-03-19T09:45:23.983Z,101887.02
2019-03-19T09:47:55.723Z,101874.31
2019-03-19T09:50:28.838Z,101873.31
2019-03-19T09:53:02.000Z,101873.39
2019-03-19T09:55:35.483Z,101870.53
2019-03-19T09:58:06.957Z,101878.48
2019-03-19T10:00:38.362Z,101872.99
2019-03-19T10:03:09.769Z,101868.03
2019-03-19T10:05:41.049Z,101866.12
2019-03-19T10:08:12.360Z,101867.63
2019-03-19T10:10:43.606Z,101861.58
2019-03-19T10:13:15.262Z,101864.70
2019-03-19T10:15:46.726Z,101865.78
2019-03-19T10:18:17.998Z,101855.80
2019-03-19T10:20:49.407Z,101850.67
2019-03-19T10:23:20.569Z,101845.75
2019-03-19T10:25:51.870Z,101846.79
2019-03-19T10:28:23.013Z,101844.09
2019-03-19T10:30:54.236Z,101839.17
2019-03-19T10:33:25.379Z,101835.07
2019-03-19T10:35:57.901Z,101832.31
2019-03-19T10:38:29.356Z,101827.36
2019-03-19T10:41:02.937Z,101822.84
2019-03-19T10:43:35.134Z,101819.13
2019-03-19T10:46:07.196Z,101819.20
2019-03-19T10:48:38.645Z,101820.98
2019-03-19T10:51:10.677Z,101823.78
2019-03-19T10:53:44.580Z,101816.79
2019-03-19T10:56:15.861Z,101814.82
2019-03-19T10:58:47.009Z,101810.34
2019-03-19T11:01:18.166Z,101807.77
2019-03-19T11:03:49.434Z,101803.77
2019-03-19T11:06:21.502Z,101810.92
2019-03-19T11:08:54.512Z,101810.36
2019-03-19T11:11:25.633Z,101797.16
2019-03-19T11:13:56.878Z,101795.36
2019-03-19T11:16:28.180Z,101795.45
2019-03-19T11:19:00.143Z,101795.63
2019-03-19T11:21:31.406Z,101795.45
2019-03-19T11:24:03.568Z,101789.20
2019-03-19T11:26:36.989Z,101789.76
2019-03-19T11:29:08.238Z,101784.48
2019-03-19T11:31:39.545Z,101781.21
2019-03-19T11:34:10.725Z,101782.55
2019-03-19T11:36:42.095Z,101781.98
2019-03-19T11:39:13.850Z,101784.91
2019-03-19T11:41:45.695Z,101785.93
2019-03-19T11:44:16.847Z,101783.44
2019-03-19T11:46:49.168Z,101771.16
2019-03-19T11:49:20.866Z,101781.86
2019-03-19T11:51:52.014Z,101772.34
2019-03-19T11:54:23.246Z,101777.19
2019-03-19T11:56:55.785Z,101771.55
2019-03-19T11:59:27.467Z,101763.34
2019-03-19T12:01:59.920Z,101762.86
2019-03-19T12:04:31.229Z,101762.78
2019-03-19T12:07:04.088Z,101758.56
2019-03-19T12:09:36.253Z,101759.44
2019-03-19T12:12:11.750Z,101753.34
2019-03-19T12:14:42.902Z,101753.09
2019-03-19T12:17:14.323Z,101751.73
2019-03-19T12:19:45.888Z,101754.94
2019-03-19T12:22:17.506Z,101751.27
2019-03-19T12:24:48.863Z,101757.86
2019-03-19T12:27:20.305Z,101753.31
2019-03-19T12:29:51.693Z,101752.77
2019-03-19T12:32:23.631Z,101751.53
2019-03-19T12:34:56.079Z,101742.16
2019-03-19T12:37:28.296Z,101742.61
2019-03-19T12:40:00.495Z,101749.33
2019-03-19T12:42:32.266Z,101749.08
2019-03-19T12:45:05.897Z,101749.87
2019-03-19T12:47:37.226Z,101741.97
2019-03-19T12:50:12.840Z,101747.33
2019-03-19T12:52:44.741Z,101748.19
2019-03-19T12:55:17.913Z,101741.91
2019-03-19T12:57:50.435Z,101739.34
2019-03-19T13:00:33.620Z,101734.22
2019-03-19T13:02:55.817Z,101733.52
2019-03-19T13:05:27.331Z,101736.91
2019-03-19T13:07:58.603Z,101739.19
2019-03-19T13:10:29.896Z,101737.98
2019-03-19T13:13:03.081Z,101738.86
2019-03-19T13:15:35.979Z,101723.86
2019-03-19T13:18:08.627Z,101732.80
2019-03-19T13:20:40.303Z,101731.21
2019-03-19T13:23:11.559Z,101729.50
2019-03-19T13:25:42.997Z,101729.44
2019-03-19T13:28:15.057Z,101731.50
2019-03-19T13:30:46.365Z,101728.49
2019-03-19T13:33:18.860Z,101730.84
2019-03-19T13:35:50.472Z,101726.23
2019-03-19T13:38:24.999Z,101731.08
2019-03-19T13:40:56.348Z,101728.87
2019-03-19T13:43:28.922Z,101721.99
2019-03-19T13:46:06.811Z,101723.28
2019-03-19T13:48:39.104Z,101718.44
2019-03-19T13:51:10.583Z,101725.45
2019-03-19T13:53:43.048Z,101719.44
2019-03-19T13:56:14.236Z,101715.52
2019-03-19T13:58:46.207Z,101719.15
2019-03-19T14:01:17.640Z,101710.16
2019-03-19T14:03:48.899Z,101716.78
2019-03-19T14:06:20.603Z,101719.74
2019-03-19T14:08:52.776Z,101715.87
2019-03-19T14:11:23.928Z,101722.77
2019-03-19T14:13:55.874Z,101720.34
2019-03-19T14:16:27.436Z,101722.66
2019-03-19T14:19:02.840Z,101727.44
2019-03-19T14:21:34.167Z,101728.54
2019-03-19T14:24:07.453Z,101725.03
2019-03-19T14:26:38.800Z,101720.66
2019-03-19T14:29:10.330Z,101722.67
2019-03-19T14:31:44.264Z,101720.81
2019-03-19T14:34:15.969Z,101722.67
2019-03-19T14:36:47.332Z,101725.20
2019-03-19T14:39:18.939Z,101725.18
2019-03-19T14:41:50.537Z,101728.56
2019-03-19T14:44:23.893Z,101730.03
2019-03-19T14:46:57.104Z,101734.86
2019-03-19T14:49:29.561Z,101732.28
2019-03-19T14:52:01.122Z,101736.98
2019-03-19T14:54:32.797Z,101736.18
2019-03-19T14:57:04.490Z,101732.66
2019-03-19T14:59:36.335Z,101742.94
2019-03-19T15:02:10.777Z,101733.21
2019-03-19T15:04:42.223Z,101738.19
2019-03-19T15:07:13.728Z,101740.27
2019-03-19T15:09:45.778Z,101742.72
2019-03-19T15:12:18.841Z,101743.66
2019-03-19T15:14:50.409Z,101744.42
2019-03-19T15:17:24.616Z,101747.80
2019-03-19T15:19:56.327Z,101754.34
2019-03-19T15:22:32.760Z,101758.80
2019-03-19T15:25:07.525Z,101746.80
2019-03-19T15:27:40.322Z,101754.80
2019-03-19T15:30:13.857Z,101761.23
2019-03-19T15:32:46.237Z,101758.01
2019-03-19T15:35:20.100Z,101762.19
2019-03-19T15:37:52.060Z,101760.36
2019-03-19T15:40:32.730Z,101764.16
2019-03-19T15:43:04.537Z,101765.83
2019-03-19T15:45:36.040Z,101773.13
2019-03-19T15:48:10.887Z,101770.43
2019-03-19T15:50:43.514Z,101773.94
2019-03-19T15:53:15.835Z,101778.14
2019-03-19T15:55:47.870Z,101777.52
2019-03-19T15:58:24.546Z,101773.89
2019-03-19T16:00:56.078Z,101772.43
2019-03-19T16:03:27.539Z,101774.56
2019-03-19T16:05:58.767Z,101777.62
2019-03-19T16:08:30.326Z,101779.98
2019-03-19T16:11:01.757Z,101776.73
2019-03-19T16:13:32.912Z,101780.78
2019-03-19T16:16:04.585Z,101778.39
2019-03-19T16:18:37.410Z,101786.95
2019-03-19T16:21:08.841Z,101785.30
2019-03-19T16:23:40.667Z,101787.59
2019-03-19T16:26:13.103Z,101789.85
2019-03-19T16:28:44.739Z,101792.11
2019-03-19T16:31:16.179Z,101791.42
2019-03-19T16:33:47.898Z,101795.07
2019-03-19T16:36:19.655Z,101793.60
2019-03-19T16:38:51.027Z,101795.95
2019-03-19T16:41:22.418Z,101801.33
2019-03-19T16:43:53.895Z,101794.48
2019-03-19T16:46:25.171Z,101800.78
2019-03-19T16:49:01.308Z,101796.41
2019-03-19T16:51:37.531Z,101800.45
2019-03-19T16:54:10.108Z,101801.48
2019-03-19T16:56:41.594Z,101799.86
2019-03-19T16:59:12.790Z,101803.50
2019-03-19T17:01:44.355Z,101799.14
2019-03-19T17:04:17.292Z,101803.50
2019-03-19T17:06:48.580Z,101802.87
2019-03-19T17:09:21.149Z,101807.02
2019-03-19T17:11:58.361Z,101806.69
2019-03-19T17:14:32.757Z,101804.67
2019-03-19T17:17:04.428Z,101807.52
2019-03-19T17:19:37.103Z,101809.80
2019-03-19T17:22:14.417Z,101805.66
2019-03-19T17:24:46.173Z,101811.95
2019-03-19T17:27:17.690Z,101804.94
2019-03-19T17:29:49.077Z,101809.40
2019-03-19T17:32:21.403Z,101803.84
2019-03-19T17:34:52.672Z,101805.26
2019-03-19T17:37:23.952Z,101811.54
2019-03-19T17:39:55.261Z,101820.46
2019-03-19T17:42:27.427Z,101823.20
2019-03-19T17:44:58.607Z,101832.40
2019-03-19T17:47:30.989Z,101829.02
2019-03-19T17:50:02.183Z,101831.82
2019-03-19T17:52:34.857Z,101827.05
2019-03-19T17:55:11.606Z,101823.77
2019-03-19T17:57:49.344Z,101825.83
2019-03-19T18:00:37.690Z,101833.98
2019-03-19T18:03:12.331Z,101834.53
2019-03-19T18:05:48.299Z,101835.72
2019-03-19T18:08:20.720Z,101836.85
2019-03-19T18:10:53.959Z,101836.11
2019-03-19T18:13:25.500Z,101839.81
2019-03-19T18:15:56.712Z,101835.23
2019-03-19T18:18:27.899Z,101840.74
2019-03-19T18:20:59.240Z,101836.95
2019-03-19T18:23:31.972Z,101832.53
2019-03-19T18:26:04.436Z,101834.45
2019-03-19T18:28:35.756Z,101831.06
2019-03-19T18:31:07.141Z,101837.03
2019-03-19T18:33:40.079Z,101840.50
2019-03-19T18:36:11.908Z,101833.97
2019-03-19T18:38:43.096Z,101842.09
2019-03-19T18:41:14.524Z,101840.83
2019-03-19T18:43:46.363Z,101839.56
2019-03-19T18:46:18.009Z,101838.38
2019-03-19T18:48:49.680Z,101845.22
2019-03-19T18:51:20.755Z,101843.44
2019-03-19T18:53:54.484Z,101848.58
2019-03-19T18:56:26.216Z,101843.82
2019-03-19T18:59:02.037Z,101850.20
2019-03-19T19:01:34.046Z,101846.64
2019-03-19T19:04:05.532Z,101846.27
2019-03-19T19:06:37.013Z,101846.38
2019-03-19T19:09:09.998Z,101846.19
2019-03-19T19:11:41.935Z,101847.75
2019-03-19T19:14:13.720Z,101844.05
2019-03-19T19:16:45.418Z,101848.29
2019-03-19T19:19:17.166Z,101852.88
2019-03-19T19:21:48.894Z,101851.44
2019-03-19T19:24:20.694Z,101850.92
2019-03-19T19:26:52.111Z,101847.15
2019-03-19T19:29:23.960Z,101854.48
2019-03-19T19:31:55.344Z,101843.19
2019-03-19T19:34:26.759Z,101848.59
2019-03-19T19:36:59.166Z,101842.97
2019-03-19T19:39:30.672Z,101847.05
2019-03-19T19:42:01.931Z,101861.88
2019-03-19T19:44:33.348Z,101855.79
2019-03-19T19:47:06.401Z,101857.58
2019-03-19T19:49:38.040Z,101860.61
2019-03-19T19:52:09.951Z,101859.23
2019-03-19T19:54:43.203Z,101858.56
2019-03-19T19:57:16.207Z,101860.34
2019-03-19T19:59:47.631Z,101856.72
2019-03-19T20:02:19.005Z,101858.79
2019-03-19T20:04:50.399Z,101861.94
2019-03-19T20:07:23.927Z,101862.11
2019-03-19T20:09:57.287Z,101861.02
2019-03-19T20:12:29.040Z,101861.31
2019-03-19T20:15:00.563Z,101855.18
2019-03-19T20:17:34.480Z,101861.38
2019-03-19T20:20:09.354Z,101854.42
2019-03-19T20:22:40.760Z,101859.86
2019-03-19T20:25:14.747Z,101859.63
2019-03-19T20:27:47.004Z,101859.57
2019-03-19T20:30:21.185Z,101866.05
2019-03-19T20:32:52.766Z,101870.87
2019-03-19T20:35:24.444Z,101876.59
2019-03-19T20:37:56.045Z,101866.34
2019-03-19T20:40:28.157Z,101877.75
2019-03-19T20:43:02.520Z,101874.13
2019-03-19T20:45:34.755Z,101876.20
2019-03-19T20:48:05.934Z,101877.49
2019-03-19T20:50:38.727Z,101874.93
2019-03-19T20:53:11.157Z,101876.48
2019-03-19T20:55:42.947Z,101873.11
2019-03-19T20:58:14.750Z,101874.72
2019-03-19T21:00:46.353Z,101863.77
2019-03-19T21:03:20.518Z,101874.39
2019-03-19T21:05:53.731Z,101877.95
2019-03-19T21:08:30.352Z,101870.61
2019-03-19T21:11:02.740Z,101873.41
2019-03-19T21:13:35.142Z,101872.79
2019-03-19T21:16:06.820Z,101878.61
2019-03-19T21:18:38.334Z,101870.70
2019-03-19T21:21:09.766Z,101878.84
2019-03-19T21:23:41.466Z,101875.97
2019-03-19T21:26:24.852Z,101876.47
2019-03-19T21:28:56.180Z,101882.15
2019-03-19T21:31:27.784Z,101880.48
2019-03-19T21:33:59.912Z,101877.14
2019-03-19T21:36:36.604Z,101868.08
2019-03-19T21:39:08.339Z,101863.53
2019-03-19T21:41:40.482Z,101868.48
2019-03-19T21:44:15.561Z,101868.39
2019-03-19T21:46:47.918Z,101878.48
2019-03-19T21:49:22.161Z,101872.84
2019-03-19T21:51:58.788Z,101873.81
2019-03-19T21:54:31.570Z,101877.71
2019-03-19T21:57:04.976Z,101884.25
2019-03-19T21:59:38.759Z,101880.25
2019-03-19T22:02:20.107Z,101885.80
2019-03-19T22:04:58.510Z,101884.07
2019-03-19T22:07:31.362Z,101884.68
2019-03-19T22:10:02.549Z,101877.33
2019-03-19T22:12:35.243Z,101879.20
2019-03-19T22:15:11.369Z,101880.61
2019-03-19T22:17:43.791Z,101879.76
2019-03-19T22:20:15.306Z,101887.70
2019-03-19T22:22:50.754Z,101887.66
2019-03-19T22:25:22.045Z,101891.05
2019-03-19T22:27:53.295Z,101891.20
2019-03-19T22:30:26.537Z,101894.39
2019-03-19T22:32:57.916Z,101890.13
2019-03-19T22:35:32.000Z,101890.61
2019-03-19T22:38:05.323Z,101896.72
2019-03-19T22:40:38.284Z,101892.69
2019-03-19T22:43:09.898Z,101900.63
2019-03-19T22:45:45.951Z,101901.03
2019-03-19T22:48:17.443Z,101901.98
2019-03-19T22:50:49.237Z,101906.84
2019-03-19T22:53:20.771Z,101903.38
2019-03-19T22:55:52.241Z,101906.39
2019-03-19T22:58:25.030Z,101905.29
2019-03-19T23:00:57.759Z,101902.52
2019-03-19T23:03:29.266Z,101905.16
2019-03-19T23:06:00.879Z,101904.30
2019-03-19T23:08:33.869Z,101899.52
2019-03-19T23:11:08.761Z,101903.39
2019-03-19T23:13:42.543Z,101907.87
2019-03-19T23:16:15.239Z,101913.22
2019-03-19T23:18:46.920Z,101906.77
2019-03-19T23:21:18.404Z,101908.50
2019-03-19T23:23:49.809Z,101913.72
2019-03-19T23:26:21.263Z,101911.05
2019-03-19T23:28:52.553Z,101915.82
2019-03-19T23:31:23.837Z,101914.95
2019-03-19T23:33:55.080Z,101910.72
2019-03-19T23:36:27.225Z,101907.68
2019-03-19T23:38:58.700Z,101909.03
2019-03-19T23:41:30.466Z,101905.30
2019-03-19T23:44:01.889Z,101911.34
2019-03-19T23:46:34.382Z,101911.87
2019-03-19T23:49:07.316Z,101903.73
2019-03-19T23:51:39.418Z,101904.74
2019-03-19T23:54:10.964Z,101900.34
2019-03-19T23:56:42.495Z,101903.47
2019-03-19T23:59:15.432Z,101904.33
